createdAt,value
2023-05-21T00:01:54.444Z,72.22
2023-05-21T00:04:21.108Z,5.35
2023-05-21T00:06:47.735Z,17.58
2023-05-21T00:09:14.536Z,36.92
2023-05-21T00:11:41.582Z,13.88
2023-05-21T00:14:08.562Z,37.65
2023-05-21T00:16:35.640Z,5.60
2023-05-21T00:19:02.539Z,236.10
2023-05-21T00:21:29.962Z,38.63
2023-05-21T00:23:56.866Z,53.78
2023-05-21T00:26:24.275Z,3.75
2023-05-21T00:28:51.170Z,4.38
2023-05-21T00:31:17.924Z,2.85
2023-05-21T00:33:44.689Z,35.15
2023-05-21T00:36:14.691Z,9.65
2023-05-21T00:38:43.841Z,16.77
2023-05-21T00:41:11.112Z,56.55
2023-05-21T00:43:40.353Z,77.25
2023-05-21T00:46:07.107Z,975.25
2023-05-21T00:48:34.131Z,1469.50
2023-05-21T00:51:01.236Z,27.10
2023-05-21T00:53:27.952Z,7.97
2023-05-21T00:55:54.885Z,6.60
2023-05-21T00:58:21.962Z,6.57
2023-05-21T01:00:49.006Z,8.60
2023-05-21T01:03:16.639Z,36.90
2023-05-21T01:05:45.375Z,46.70
2023-05-21T01:08:13.270Z,22.27
2023-05-21T01:10:39.909Z,106.38
2023-05-21T01:13:06.540Z,64.90
2023-05-21T01:15:33.543Z,78.57
2023-05-21T01:18:00.593Z,2.38
2023-05-21T01:20:27.470Z,5.78
2023-05-21T01:22:54.188Z,129.00
2023-05-21T01:25:20.815Z,7.90
2023-05-21T01:27:47.878Z,6.78
2023-05-21T01:30:14.698Z,52.58
2023-05-21T01:32:41.538Z,4.68
2023-05-21T01:35:08.770Z,31.30
2023-05-21T01:37:35.563Z,9.65
2023-05-21T01:40:03.176Z,114.80
2023-05-21T01:42:30.167Z,5.03
2023-05-21T01:44:57.069Z,3.42
2023-05-21T01:47:23.828Z,140.35
2023-05-21T01:49:50.603Z,552.83
2023-05-21T01:52:17.584Z,4.50
2023-05-21T01:54:44.652Z,501.98
2023-05-21T01:57:11.329Z,311.73
2023-05-21T01:59:38.880Z,11.65
2023-05-21T02:02:05.924Z,5.00
2023-05-21T02:04:32.896Z,4.53
2023-05-21T02:06:59.671Z,6.80
2023-05-21T02:09:26.335Z,15.07
2023-05-21T02:11:53.352Z,113.68
2023-05-21T02:14:20.924Z,348.80
2023-05-21T02:16:47.957Z,5.43
2023-05-21T02:19:14.990Z,10.02
2023-05-21T02:21:42.187Z,51.15
2023-05-21T02:24:08.929Z,31.83
2023-05-21T02:26:35.974Z,5.07
2023-05-21T02:29:03.146Z,6.18
2023-05-21T02:31:30.166Z,17.00
2023-05-21T02:33:56.955Z,45.60
2023-05-21T02:36:25.324Z,8.50
2023-05-21T02:38:53.167Z,3.97
2023-05-21T02:41:20.046Z,134.40
2023-05-21T02:43:46.739Z,7.47
2023-05-21T02:46:13.498Z,5.20
2023-05-21T02:48:40.416Z,5.70
2023-05-21T02:51:07.134Z,46.47
2023-05-21T02:53:33.866Z,5.88
2023-05-21T02:56:00.817Z,3.88
2023-05-21T02:58:27.715Z,187.98
2023-05-21T03:00:54.782Z,6.47
2023-05-21T03:03:21.948Z,12.65
2023-05-21T03:05:48.828Z,6.10
2023-05-21T03:08:15.986Z,36.13
2023-05-21T03:10:42.636Z,6.63
2023-05-21T03:13:09.995Z,1314.13
2023-05-21T03:15:39.317Z,5.03
2023-05-21T03:18:06.330Z,64.50
2023-05-21T03:20:33.534Z,674.35
2023-05-21T03:23:00.735Z,347.42
2023-05-21T03:25:27.476Z,5.18
2023-05-21T03:27:54.153Z,10.25
2023-05-21T03:30:20.804Z,7.03
2023-05-21T03:32:47.806Z,5.45
2023-05-21T03:35:14.500Z,134.57
2023-05-21T03:37:41.638Z,57.85
2023-05-21T03:40:08.733Z,7.03
2023-05-21T03:42:35.779Z,8.70
2023-05-21T03:45:02.803Z,9.15
2023-05-21T03:47:29.822Z,8.10
2023-05-21T03:49:56.871Z,8.23
2023-05-21T03:52:23.656Z,303.25
2023-05-21T03:54:50.610Z,809.67
2023-05-21T03:57:17.508Z,768.75
2023-05-21T03:59:44.162Z,536.35
2023-05-21T04:02:10.983Z,7.45
2023-05-21T04:04:37.732Z,840.55
2023-05-21T04:07:04.743Z,691.63
2023-05-21T04:09:31.412Z,792.00
2023-05-21T04:11:58.108Z,782.20
2023-05-21T04:14:24.750Z,778.40
2023-05-21T04:16:51.553Z,745.67
2023-05-21T04:19:18.305Z,691.10
2023-05-21T04:21:45.234Z,792.60
2023-05-21T04:24:12.280Z,798.20
2023-05-21T04:26:42.136Z,777.90
2023-05-21T04:29:08.803Z,781.58
2023-05-21T04:31:35.536Z,589.88
2023-05-21T04:34:02.280Z,780.83
2023-05-21T04:36:29.088Z,796.45
2023-05-21T04:38:55.874Z,782.28
2023-05-21T04:41:22.588Z,784.45
2023-05-21T04:43:49.735Z,787.78
2023-05-21T04:46:16.576Z,1388.35
2023-05-21T04:48:43.690Z,1454.97
2023-05-21T04:51:10.422Z,1406.28
2023-05-21T04:53:37.178Z,1402.60
2023-05-21T04:56:04.293Z,1441.35
2023-05-21T04:58:33.315Z,1465.50
2023-05-21T05:01:03.609Z,1492.60
2023-05-21T05:03:30.897Z,1496.22
2023-05-21T05:05:57.898Z,1365.60
2023-05-21T05:08:24.884Z,1526.38
2023-05-21T05:10:52.140Z,10.20
2023-05-21T05:13:19.186Z,7.95
2023-05-21T05:15:48.717Z,12.52
2023-05-21T05:18:16.643Z,6.03
2023-05-21T05:20:43.488Z,9.30
2023-05-21T05:23:10.416Z,17.02
2023-05-21T05:25:37.805Z,7.63
2023-05-21T05:28:04.567Z,13.68
2023-05-21T05:30:31.304Z,12.35
2023-05-21T05:32:58.268Z,14.23
2023-05-21T05:35:24.975Z,8.50
2023-05-21T05:37:51.742Z,14.70
2023-05-21T05:40:18.668Z,18.08
2023-05-21T05:42:45.680Z,20.02
2023-05-21T05:45:12.544Z,17.23
2023-05-21T05:47:39.212Z,9.68
2023-05-21T05:50:06.430Z,7.93
2023-05-21T05:52:33.613Z,7.13
2023-05-21T05:55:00.497Z,6.97
2023-05-21T05:57:27.490Z,14.95
2023-05-21T05:59:54.281Z,10.45
2023-05-21T06:02:20.985Z,5.57
2023-05-21T06:04:47.619Z,11.20
2023-05-21T06:07:14.295Z,8.32
2023-05-21T06:09:41.007Z,12.75
2023-05-21T06:12:08.668Z,12.88
2023-05-21T06:14:36.555Z,8.73
2023-05-21T06:17:03.204Z,11.60
2023-05-21T06:19:29.975Z,8.25
2023-05-21T06:21:56.703Z,8.30
2023-05-21T06:24:23.356Z,8.82
2023-05-21T06:26:50.351Z,7.25
2023-05-21T06:29:17.150Z,6.78
2023-05-21T06:31:43.758Z,20.88
2023-05-21T06:34:11.840Z,9.00
2023-05-21T06:36:38.465Z,10.73
2023-05-21T06:39:05.128Z,6.00
2023-05-21T06:41:32.073Z,6.85
2023-05-21T06:43:58.700Z,47.83
2023-05-21T06:46:25.534Z,36.05
2023-05-21T06:48:52.473Z,207.45
2023-05-21T06:51:19.132Z,36.63
2023-05-21T06:53:45.889Z,8.23
2023-05-21T06:56:13.289Z,6.93
2023-05-21T06:58:39.972Z,5.35
2023-05-21T07:01:06.812Z,8.50
2023-05-21T07:03:33.571Z,4.13
2023-05-21T07:06:00.234Z,5.38
2023-05-21T07:08:27.292Z,4.05
2023-05-21T07:10:53.970Z,3.85
2023-05-21T07:13:20.658Z,5.75
2023-05-21T07:15:47.314Z,8.43
2023-05-21T07:18:13.983Z,72.72
2023-05-21T07:20:40.667Z,7.35
2023-05-21T07:23:07.286Z,8.48
2023-05-21T07:25:34.008Z,18.25
2023-05-21T07:28:00.964Z,4.10
2023-05-21T07:30:27.593Z,6.43
2023-05-21T07:32:54.360Z,7.68
2023-05-21T07:35:21.169Z,7.00
2023-05-21T07:37:48.242Z,6.47
2023-05-21T07:40:15.013Z,9.00
2023-05-21T07:42:41.672Z,10.98
2023-05-21T07:45:08.291Z,446.13
2023-05-21T07:47:35.098Z,204.20
2023-05-21T07:50:01.786Z,20.10
2023-05-21T07:52:28.504Z,55.00
2023-05-21T07:54:55.206Z,66.03
2023-05-21T07:57:21.886Z,1198.43
2023-05-21T07:59:48.526Z,1440.32
2023-05-21T08:02:15.287Z,1466.68
2023-05-21T08:04:42.532Z,1395.10
2023-05-21T08:07:10.157Z,1386.82
2023-05-21T08:09:36.882Z,1429.05
2023-05-21T08:12:03.490Z,1516.47
2023-05-21T08:14:30.239Z,1495.03
2023-05-21T08:16:57.239Z,1460.20
2023-05-21T08:19:23.946Z,1468.85
2023-05-21T08:21:52.821Z,1443.85
2023-05-21T08:24:19.808Z,1495.85
2023-05-21T08:26:47.520Z,1418.35
2023-05-21T08:29:14.162Z,1524.75
2023-05-21T08:31:41.642Z,1501.60
2023-05-21T08:34:08.317Z,1384.85
2023-05-21T08:36:35.280Z,1493.22
2023-05-21T08:39:01.891Z,42.90
2023-05-21T08:41:28.586Z,5.63
2023-05-21T08:43:55.694Z,2.65
2023-05-21T08:46:22.659Z,2.33
2023-05-21T08:48:49.410Z,3.35
2023-05-21T08:51:16.051Z,2.97
2023-05-21T08:53:42.729Z,36.22
2023-05-21T08:56:09.598Z,11.57
2023-05-21T08:58:36.486Z,131.07
2023-05-21T09:01:04.668Z,2.28
2023-05-21T09:03:33.122Z,3.67
2023-05-21T09:05:59.822Z,3.25
2023-05-21T09:08:26.487Z,41.30
2023-05-21T09:10:53.142Z,8.05
2023-05-21T09:13:19.955Z,6.38
2023-05-21T09:15:46.944Z,3.15
2023-05-21T09:18:13.638Z,2.08
2023-05-21T09:20:40.300Z,3.20
2023-05-21T09:23:07.206Z,6.25
2023-05-21T09:25:34.462Z,6.35
2023-05-21T09:28:01.221Z,3.38
2023-05-21T09:30:29.735Z,6.82
2023-05-21T09:32:57.323Z,2.60
2023-05-21T09:35:24.014Z,4.60
2023-05-21T09:37:50.876Z,4.50
2023-05-21T09:40:17.708Z,3.78
2023-05-21T09:42:44.408Z,59.50
2023-05-21T09:45:11.471Z,3.03
2023-05-21T09:47:38.186Z,29.25
2023-05-21T09:50:05.008Z,6.10
2023-05-21T09:52:32.359Z,2.55
2023-05-21T09:54:58.971Z,2.22
2023-05-21T09:57:25.659Z,270.52
2023-05-21T09:59:52.736Z,2.83
2023-05-21T10:02:19.428Z,42.40
2023-05-21T10:04:46.220Z,26.55
2023-05-21T10:07:12.935Z,6.75
2023-05-21T10:09:39.709Z,10.88
2023-05-21T10:12:06.869Z,3.03
2023-05-21T10:14:34.164Z,33.30
2023-05-21T10:17:00.870Z,418.35
2023-05-21T10:19:27.819Z,690.97
2023-05-21T10:21:54.632Z,284.15
2023-05-21T10:24:21.292Z,1382.45
2023-05-21T10:26:48.030Z,1392.60
2023-05-21T10:43:58.446Z,1461.15
2023-05-21T10:46:25.095Z,1426.53
2023-05-21T10:48:51.950Z,1465.80
2023-05-21T10:51:18.664Z,1437.10
2023-05-21T10:53:45.319Z,1370.70
2023-05-21T10:56:11.995Z,1423.47
2023-05-21T10:58:38.814Z,1468.95
2023-05-21T11:01:05.733Z,1458.80
2023-05-21T11:03:34.336Z,1504.18
2023-05-21T11:06:03.457Z,1363.97
2023-05-21T11:08:37.308Z,1251.57
2023-05-21T11:11:04.149Z,1175.68
2023-05-21T11:13:31.439Z,1366.90
2023-05-21T11:15:58.471Z,1451.22
2023-05-21T11:18:25.140Z,1344.80
2023-05-21T11:20:52.222Z,1260.63
2023-05-21T11:23:18.887Z,1383.10
2023-05-21T11:25:45.548Z,1440.25
2023-05-21T11:28:15.366Z,1415.15
2023-05-21T11:30:42.345Z,1430.20
2023-05-21T11:33:12.302Z,1383.80
2023-05-21T11:35:39.143Z,1292.43
2023-05-21T11:38:06.126Z,1138.72
2023-05-21T11:40:33.138Z,1221.90
2023-05-21T11:42:59.808Z,1282.63
2023-05-21T11:45:26.722Z,1143.55
2023-05-21T11:47:53.717Z,1219.60
2023-05-21T11:50:20.886Z,1169.85
2023-05-21T11:52:47.742Z,1096.63
2023-05-21T11:55:15.818Z,1129.55
2023-05-21T11:57:42.875Z,1365.20
2023-05-21T12:00:14.218Z,1272.80
2023-05-21T12:02:41.021Z,1158.18
2023-05-21T12:05:10.169Z,1268.15
2023-05-21T12:07:37.206Z,1357.03
2023-05-21T12:10:03.852Z,1221.95
2023-05-21T12:12:38.820Z,1332.15
2023-05-21T12:15:13.555Z,1247.05
2023-05-21T12:17:40.828Z,1133.63
2023-05-21T12:20:08.366Z,1216.70
2023-05-21T12:22:35.010Z,1223.00
2023-05-21T12:25:02.128Z,1256.85
2023-05-21T12:27:31.222Z,1306.22
2023-05-21T12:29:58.679Z,1234.00
2023-05-21T12:32:25.365Z,1239.10
2023-05-21T12:34:52.685Z,1261.78
2023-05-21T12:37:19.489Z,1268.55
2023-05-21T12:39:46.244Z,1039.32
2023-05-21T12:42:12.944Z,1273.63
2023-05-21T12:44:39.746Z,1118.43
2023-05-21T12:47:06.501Z,1148.13
2023-05-21T12:49:33.161Z,1056.95
2023-05-21T12:51:59.932Z,1219.88
2023-05-21T12:54:26.585Z,1293.30
2023-05-21T12:56:53.234Z,1344.47
2023-05-21T12:59:19.916Z,1393.78
2023-05-21T13:01:46.684Z,1326.95
2023-05-21T13:04:13.437Z,1349.68
2023-05-21T13:06:40.128Z,1231.50
2023-05-21T13:09:06.814Z,1215.50
2023-05-21T13:11:33.459Z,1288.32
2023-05-21T13:14:00.382Z,1371.60
2023-05-21T13:16:27.085Z,1230.32
2023-05-21T13:18:53.895Z,1244.70
2023-05-21T13:21:20.752Z,1440.30
2023-05-21T13:23:47.749Z,1384.25
2023-05-21T13:26:14.410Z,1430.15
2023-05-21T13:28:42.764Z,1386.93
2023-05-21T13:31:09.917Z,1371.82
2023-05-21T13:33:36.879Z,1350.88
2023-05-21T13:36:03.709Z,1411.55
2023-05-21T13:38:30.405Z,1378.03
2023-05-21T13:40:57.112Z,1289.43
2023-05-21T13:43:23.785Z,1214.03
2023-05-21T13:45:51.807Z,1195.60
2023-05-21T13:48:18.615Z,1252.00
2023-05-21T13:50:46.025Z,1272.53
2023-05-21T13:53:12.786Z,1241.20
2023-05-21T13:55:39.475Z,1090.00
2023-05-21T13:58:06.369Z,1261.60
2023-05-21T14:00:33.010Z,1389.03
2023-05-21T14:02:59.829Z,1257.78
2023-05-21T14:05:26.642Z,1350.35
2023-05-21T14:07:53.275Z,1145.90
2023-05-21T14:10:20.745Z,1067.25
2023-05-21T14:12:47.418Z,1135.50
2023-05-21T14:15:14.116Z,1130.72
2023-05-21T14:17:42.376Z,1071.35
2023-05-21T14:20:09.533Z,1067.35
2023-05-21T14:22:36.277Z,1033.63
2023-05-21T14:25:03.408Z,1043.03
2023-05-21T14:27:30.057Z,1033.72
2023-05-21T14:29:56.735Z,1015.75
2023-05-21T14:32:23.533Z,1016.47
2023-05-21T14:34:50.278Z,1012.22
2023-05-21T14:37:17.166Z,1014.72
2023-05-21T14:39:44.076Z,994.55
2023-05-21T14:42:10.691Z,1033.68
2023-05-21T14:44:37.353Z,1034.72
2023-05-21T14:47:04.044Z,1021.47
2023-05-21T14:49:30.784Z,1024.32
2023-05-21T14:51:57.462Z,1008.97
2023-05-21T14:54:24.106Z,1012.58
2023-05-21T14:56:50.890Z,1015.72
2023-05-21T14:59:17.620Z,1001.00
2023-05-21T15:01:44.291Z,1003.35
2023-05-21T15:04:11.449Z,998.75
2023-05-21T15:06:38.263Z,960.22
2023-05-21T15:09:04.995Z,989.78
2023-05-21T15:11:33.954Z,1007.05
2023-05-21T15:14:00.738Z,1011.38
2023-05-21T15:16:27.596Z,990.30
2023-05-21T15:18:54.424Z,957.65
2023-05-21T15:21:21.134Z,973.53
2023-05-21T15:23:47.997Z,967.00
2023-05-21T15:26:14.709Z,944.92
2023-05-21T15:28:41.523Z,932.67
2023-05-21T15:31:08.214Z,960.88
2023-05-21T15:33:34.851Z,946.50
2023-05-21T15:36:01.560Z,950.83
2023-05-21T15:38:28.270Z,973.88
2023-05-21T15:40:55.385Z,988.88
2023-05-21T15:43:22.042Z,983.03
2023-05-21T15:45:48.673Z,983.13
2023-05-21T15:48:19.916Z,941.97
2023-05-21T15:50:46.914Z,939.03
2023-05-21T15:53:13.679Z,932.50
2023-05-21T15:55:40.530Z,931.65
2023-05-21T15:58:07.400Z,910.92
2023-05-21T16:00:34.180Z,925.63
2023-05-21T16:03:01.039Z,970.08
2023-05-21T16:05:27.810Z,983.75
2023-05-21T16:07:54.493Z,947.45
2023-05-21T16:10:21.136Z,963.75
2023-05-21T16:12:48.248Z,938.88
2023-05-21T16:15:14.878Z,950.20
2023-05-21T16:17:41.723Z,943.60
2023-05-21T16:20:08.359Z,978.83
2023-05-21T16:22:35.067Z,973.85
2023-05-21T16:25:01.696Z,973.22
2023-05-21T16:27:28.522Z,997.03
2023-05-21T16:29:55.184Z,979.10
2023-05-21T16:32:22.104Z,985.80
2023-05-21T16:34:48.977Z,949.65
2023-05-21T16:37:15.676Z,962.42
2023-05-21T16:39:42.338Z,971.63
2023-05-21T16:42:09.046Z,949.75
2023-05-21T16:44:37.757Z,961.42
2023-05-21T16:47:04.480Z,911.58
2023-05-21T16:49:31.154Z,1078.55
2023-05-21T16:51:57.819Z,1086.68
2023-05-21T16:54:24.705Z,1099.85
2023-05-21T16:56:51.424Z,1015.95
2023-05-21T16:59:18.556Z,945.58
2023-05-21T17:01:45.365Z,958.60
2023-05-21T17:04:12.123Z,1048.55
2023-05-21T17:06:38.825Z,1077.03
2023-05-21T17:09:05.557Z,964.90
2023-05-21T17:11:32.315Z,996.95
2023-05-21T17:13:59.018Z,1039.35
2023-05-21T17:16:25.753Z,975.95
2023-05-21T17:18:52.472Z,1069.60
2023-05-21T17:21:19.547Z,1087.70
2023-05-21T17:23:46.345Z,1039.80
2023-05-21T17:26:13.970Z,946.67
2023-05-21T17:28:40.734Z,1064.90
2023-05-21T17:31:07.525Z,956.47
2023-05-21T17:33:34.242Z,945.33
2023-05-21T17:36:02.169Z,1198.88
2023-05-21T17:38:28.808Z,1122.35
2023-05-21T17:40:55.755Z,1351.95
2023-05-21T17:43:23.089Z,1071.70
2023-05-21T17:45:50.000Z,1096.50
2023-05-21T17:48:16.778Z,966.65
2023-05-21T17:50:45.340Z,1063.57
2023-05-21T17:53:13.063Z,1086.30
2023-05-21T17:55:39.778Z,997.67
2023-05-21T17:58:06.606Z,981.30
2023-05-21T18:00:33.544Z,1038.10
2023-05-21T18:03:01.197Z,1025.63
2023-05-21T18:05:27.870Z,1014.92
2023-05-21T18:07:54.515Z,1056.05
2023-05-21T18:10:21.244Z,1001.63
2023-05-21T18:12:47.982Z,985.75
2023-05-21T18:15:15.312Z,1123.07
2023-05-21T18:17:42.029Z,1052.85
2023-05-21T18:20:08.767Z,958.42
2023-05-21T18:22:36.728Z,999.95
2023-05-21T18:25:03.410Z,1044.18
2023-05-21T18:27:30.287Z,998.13
2023-05-21T18:29:57.063Z,1125.07
2023-05-21T18:32:23.755Z,1103.75
2023-05-21T18:34:50.493Z,1030.60
2023-05-21T18:37:17.642Z,1173.53
2023-05-21T18:39:44.452Z,1144.53
2023-05-21T18:42:13.315Z,1094.47
2023-05-21T18:44:40.509Z,1156.43
2023-05-21T18:47:07.868Z,1208.43
2023-05-21T18:49:36.089Z,1169.20
2023-05-21T18:52:03.181Z,1197.55
2023-05-21T18:54:29.802Z,1215.30
2023-05-21T18:56:59.781Z,1277.40
2023-05-21T18:59:26.679Z,1292.63
2023-05-21T19:01:53.376Z,1276.53
2023-05-21T19:04:20.069Z,1373.55
2023-05-21T19:06:47.204Z,1219.93
2023-05-21T19:09:13.870Z,1221.50
2023-05-21T19:11:40.639Z,1416.80
2023-05-21T19:14:07.298Z,1407.72
2023-05-21T19:16:34.070Z,1326.45
2023-05-21T19:19:00.905Z,1241.15
2023-05-21T19:21:27.605Z,1402.40
2023-05-21T19:23:54.281Z,1481.25
2023-05-21T19:26:21.387Z,1443.10
2023-05-21T19:28:53.019Z,1419.50
2023-05-21T19:31:20.094Z,1441.72
2023-05-21T19:33:46.927Z,1387.65
2023-05-21T19:36:13.802Z,1350.65
2023-05-21T19:38:40.885Z,1273.13
2023-05-21T19:41:07.581Z,10.73
2023-05-21T19:43:34.496Z,376.95
2023-05-21T19:46:01.358Z,84.53
2023-05-21T19:48:31.036Z,240.70
2023-05-21T19:50:58.011Z,862.00
2023-05-21T19:53:24.750Z,1110.88
2023-05-21T19:55:51.467Z,63.72
2023-05-21T19:58:23.449Z,10.43
2023-05-21T20:00:50.812Z,1469.53
2023-05-21T20:03:17.611Z,1437.28
2023-05-21T20:05:44.346Z,1375.30
2023-05-21T20:08:11.028Z,1253.47
2023-05-21T20:10:37.981Z,1346.43
2023-05-21T20:13:04.773Z,1202.20
2023-05-21T20:17:59.123Z,688.95
2023-05-21T20:20:26.809Z,1132.15
2023-05-21T20:22:53.530Z,1226.10
2023-05-21T20:25:20.194Z,1361.80
2023-05-21T20:27:47.023Z,1240.38
2023-05-21T20:30:13.656Z,1311.55
2023-05-21T20:32:40.384Z,1215.88
2023-05-21T20:35:08.827Z,1159.07
2023-05-21T20:37:36.861Z,1442.80
2023-05-21T20:40:05.210Z,1390.70
2023-05-21T20:42:34.807Z,1370.38
2023-05-21T20:45:01.894Z,1400.32
2023-05-21T20:47:30.164Z,1350.90
2023-05-21T20:49:57.742Z,1362.30
2023-05-21T20:52:24.945Z,1381.38
2023-05-21T20:54:54.630Z,1380.93
2023-05-21T20:57:22.481Z,1367.15
2023-05-21T20:59:49.098Z,1302.03
2023-05-21T21:02:15.716Z,1276.97
2023-05-21T21:04:42.379Z,1285.43
2023-05-21T21:07:10.150Z,1259.20
2023-05-21T21:09:37.318Z,1171.50
2023-05-21T21:12:14.410Z,1181.68
2023-05-21T21:14:50.541Z,1177.50
2023-05-21T21:17:17.216Z,1258.07
2023-05-21T21:19:43.809Z,1208.95
2023-05-21T21:22:10.638Z,1247.03
2023-05-21T21:24:37.285Z,1284.20
2023-05-21T21:27:03.945Z,1224.43
2023-05-21T21:29:30.639Z,1271.00
2023-05-21T21:31:57.344Z,1240.05
2023-05-21T21:34:25.238Z,1156.65
2023-05-21T21:36:51.980Z,1247.50
2023-05-21T21:39:18.649Z,1203.13
2023-05-21T21:41:45.739Z,1265.15
2023-05-21T21:44:12.438Z,1224.75
2023-05-21T21:46:39.139Z,1243.75
2023-05-21T21:49:05.813Z,1172.45
2023-05-21T21:51:32.458Z,1225.75
2023-05-21T21:53:59.210Z,1204.50
2023-05-21T21:56:26.213Z,1225.35
2023-05-21T21:58:53.422Z,1165.45
2023-05-21T22:01:20.270Z,1144.93
2023-05-21T22:03:47.300Z,1304.85
2023-05-21T22:06:13.953Z,1285.82
2023-05-21T22:08:40.888Z,1288.00
2023-05-21T22:11:07.672Z,1312.53
2023-05-21T22:13:34.444Z,1246.55
2023-05-21T22:16:02.119Z,1264.55
2023-05-21T22:18:40.201Z,1246.72
2023-05-21T22:21:09.740Z,1088.50
2023-05-21T22:23:36.726Z,1327.05
2023-05-21T22:26:03.544Z,1278.63
2023-05-21T22:28:30.193Z,1285.65
2023-05-21T22:30:56.899Z,1129.55
2023-05-21T22:33:23.593Z,1278.28
2023-05-21T22:35:50.317Z,1179.45
2023-05-21T22:38:17.861Z,1233.85
2023-05-21T22:40:44.550Z,1231.50
2023-05-21T22:43:11.375Z,1221.15
2023-05-21T22:45:38.435Z,1103.97
2023-05-21T22:48:07.411Z,1245.45
2023-05-21T22:50:34.191Z,1153.65
2023-05-21T22:53:00.846Z,1219.95
2023-05-21T22:55:27.506Z,1351.30
2023-05-21T22:57:54.161Z,1430.43
2023-05-21T23:00:20.881Z,1184.03
2023-05-21T23:02:47.667Z,1333.35
2023-05-21T23:05:14.364Z,1321.85
2023-05-21T23:07:41.453Z,1273.50
2023-05-21T23:10:08.133Z,1092.68
2023-05-21T23:12:34.752Z,1253.72
2023-05-21T23:15:01.421Z,1142.43
2023-05-21T23:17:28.059Z,1266.63
2023-05-21T23:19:54.720Z,1281.88
2023-05-21T23:22:22.120Z,1264.38
2023-05-21T23:24:48.977Z,1147.82
2023-05-21T23:27:15.610Z,1166.20
2023-05-21T23:29:42.249Z,1140.70
2023-05-21T23:32:09.125Z,1266.10
2023-05-21T23:34:35.941Z,1243.13
2023-05-21T23:37:02.618Z,1140.63
2023-05-21T23:39:29.594Z,1139.28
2023-05-21T23:41:56.403Z,1152.70
2023-05-21T23:44:23.222Z,1098.32
2023-05-21T23:46:50.229Z,1304.80
2023-05-21T23:49:17.010Z,1310.25
2023-05-21T23:51:43.693Z,1289.90
2023-05-21T23:54:10.327Z,1265.57
2023-05-21T23:56:36.943Z,1202.55
2023-05-21T23:59:03.565Z,1087.88
